METAR Data
IDs: Format: Raw Decoded Include TAF

Data at: 1306 UTC 26 Feb 2021

LSMA 261250Z 36003KT 320V090 CAVOK 15/03 Q1029 RMK BLU